sensor_id;sensor_type;location;lat;lon;timestamp;P1;durP1;ratioP1;P2;durP2;ratioP2
66987;SDS011;53908;51.464;-2.588;2022-07-06T00:01:47;4.40;;;2.28;;
66987;SDS011;53908;51.464;-2.588;2022-07-06T00:04:13;2.30;;;1.70;;
66987;SDS011;53908;51.464;-2.588;2022-07-06T00:06:39;2.75;;;1.90;;
66987;SDS011;53908;51.464;-2.588;2022-07-06T00:09:05;2.95;;;1.90;;
66987;SDS011;53908;51.464;-2.588;2022-07-06T00:11:30;2.55;;;1.90;;
66987;SDS011;53908;51.464;-2.588;2022-07-06T00:13:56;3.38;;;1.70;;
66987;SDS011;53908;51.464;-2.588;2022-07-06T00:16:22;2.92;;;2.10;;
66987;SDS011;53908;51.464;-2.588;2022-07-06T00:18:48;3.42;;;2.22;;
66987;SDS011;53908;51.464;-2.588;2022-07-06T00:21:13;3.13;;;2.03;;
66987;SDS011;53908;51.464;-2.588;2022-07-06T00:23:39;3.53;;;1.90;;
66987;SDS011;53908;51.464;-2.588;2022-07-06T00:26:04;4.60;;;2.40;;
66987;SDS011;53908;51.464;-2.588;2022-07-06T00:28:30;4.55;;;2.00;;
66987;SDS011;53908;51.464;-2.588;2022-07-06T00:30:56;3.08;;;2.25;;
66987;SDS011;53908;51.464;-2.588;2022-07-06T00:33:21;2.53;;;2.05;;
66987;SDS011;53908;51.464;-2.588;2022-07-06T00:35:47;2.90;;;2.08;;
66987;SDS011;53908;51.464;-2.588;2022-07-06T00:38:12;4.80;;;2.40;;
66987;SDS011;53908;51.464;-2.588;2022-07-06T00:40:38;2.35;;;1.90;;
66987;SDS011;53908;51.464;-2.588;2022-07-06T00:43:03;2.13;;;1.88;;
66987;SDS011;53908;51.464;-2.588;2022-07-06T00:45:29;2.70;;;2.15;;
66987;SDS011;53908;51.464;-2.588;2022-07-06T00:47:54;2.50;;;1.92;;
66987;SDS011;53908;51.464;-2.588;2022-07-06T00:50:20;5.93;;;2.45;;
66987;SDS011;53908;51.464;-2.588;2022-07-06T00:52:54;5.00;;;3.00;;
66987;SDS011;53908;51.464;-2.588;2022-07-06T00:55:24;5.28;;;2.85;;
66987;SDS011;53908;51.464;-2.588;2022-07-06T00:57:51;3.95;;;2.65;;
66987;SDS011;53908;51.464;-2.588;2022-07-06T01:00:18;3.17;;;1.80;;
66987;SDS011;53908;51.464;-2.588;2022-07-06T01:02:45;1.60;;;1.50;;
66987;SDS011;53908;51.464;-2.588;2022-07-06T01:05:12;4.07;;;1.90;;
66987;SDS011;53908;51.464;-2.588;2022-07-06T01:07:39;1.90;;;1.67;;
66987;SDS011;53908;51.464;-2.588;2022-07-06T01:10:06;1.80;;;1.70;;
66987;SDS011;53908;51.464;-2.588;2022-07-06T01:12:36;4.47;;;1.58;;
66987;SDS011;53908;51.464;-2.588;2022-07-06T01:15:03;4.43;;;1.80;;
66987;SDS011;53908;51.464;-2.588;2022-07-06T01:17:29;2.47;;;1.80;;
66987;SDS011;53908;51.464;-2.588;2022-07-06T01:19:55;3.00;;;1.67;;
66987;SDS011;53908;51.464;-2.588;2022-07-06T01:22:21;1.73;;;1.63;;
66987;SDS011;53908;51.464;-2.588;2022-07-06T01:24:46;1.52;;;1.42;;
66987;SDS011;53908;51.464;-2.588;2022-07-06T01:27:11;2.22;;;1.70;;
66987;SDS011;53908;51.464;-2.588;2022-07-06T01:29:37;1.70;;;1.60;;
66987;SDS011;53908;51.464;-2.588;2022-07-06T01:32:02;2.70;;;1.55;;
66987;SDS011;53908;51.464;-2.588;2022-07-06T01:34:28;2.38;;;1.63;;
66987;SDS011;53908;51.464;-2.588;2022-07-06T01:36:54;1.58;;;1.48;;
66987;SDS011;53908;51.464;-2.588;2022-07-06T01:39:19;3.75;;;1.75;;
66987;SDS011;53908;51.464;-2.588;2022-07-06T01:41:45;1.88;;;1.50;;
66987;SDS011;53908;51.464;-2.588;2022-07-06T01:44:11;6.03;;;1.48;;
66987;SDS011;53908;51.464;-2.588;2022-07-06T01:46:36;5.95;;;1.90;;
66987;SDS011;53908;51.464;-2.588;2022-07-06T01:49:02;3.38;;;1.80;;
66987;SDS011;53908;51.464;-2.588;2022-07-06T01:51:28;2.95;;;2.10;;
66987;SDS011;53908;51.464;-2.588;2022-07-06T01:53:54;3.05;;;2.03;;
66987;SDS011;53908;51.464;-2.588;2022-07-06T01:56:19;3.15;;;1.80;;
66987;SDS011;53908;51.464;-2.588;2022-07-06T01:58:45;2.38;;;1.92;;
66987;SDS011;53908;51.464;-2.588;2022-07-06T02:01:18;2.25;;;2.00;;
66987;SDS011;53908;51.464;-2.588;2022-07-06T02:03:45;2.15;;;1.95;;
66987;SDS011;53908;51.464;-2.588;2022-07-06T02:06:11;2.20;;;2.00;;
66987;SDS011;53908;51.464;-2.588;2022-07-06T02:08:38;4.40;;;2.50;;
66987;SDS011;53908;51.464;-2.588;2022-07-06T02:11:08;2.30;;;1.98;;
66987;SDS011;53908;51.464;-2.588;2022-07-06T02:13:34;3.50;;;2.63;;
66987;SDS011;53908;51.464;-2.588;2022-07-06T02:16:00;3.90;;;2.03;;
66987;SDS011;53908;51.464;-2.588;2022-07-06T02:18:26;2.10;;;1.77;;
66987;SDS011;53908;51.464;-2.588;2022-07-06T02:20:52;2.65;;;2.00;;
66987;SDS011;53908;51.464;-2.588;2022-07-06T02:23:17;3.28;;;2.20;;
66987;SDS011;53908;51.464;-2.588;2022-07-06T02:25:43;2.60;;;1.77;;
66987;SDS011;53908;51.464;-2.588;2022-07-06T02:28:08;3.10;;;1.70;;
66987;SDS011;53908;51.464;-2.588;2022-07-06T02:30:33;2.30;;;1.70;;
66987;SDS011;53908;51.464;-2.588;2022-07-06T02:32:59;1.65;;;1.55;;
66987;SDS011;53908;51.464;-2.588;2022-07-06T02:35:24;1.70;;;1.60;;
66987;SDS011;53908;51.464;-2.588;2022-07-06T02:37:50;3.17;;;1.83;;
66987;SDS011;53908;51.464;-2.588;2022-07-06T02:40:15;4.03;;;1.80;;
66987;SDS011;53908;51.464;-2.588;2022-07-06T02:42:41;4.03;;;1.60;;
66987;SDS011;53908;51.464;-2.588;2022-07-06T02:45:06;2.10;;;1.55;;
66987;SDS011;53908;51.464;-2.588;2022-07-06T02:47:32;3.45;;;1.73;;
66987;SDS011;53908;51.464;-2.588;2022-07-06T02:49:58;2.25;;;1.65;;
66987;SDS011;53908;51.464;-2.588;2022-07-06T02:52:23;3.67;;;1.88;;
66987;SDS011;53908;51.464;-2.588;2022-07-06T02:54:49;1.92;;;1.73;;
66987;SDS011;53908;51.464;-2.588;2022-07-06T02:57:15;5.63;;;1.90;;
66987;SDS011;53908;51.464;-2.588;2022-07-06T02:59:41;3.20;;;1.80;;
66987;SDS011;53908;51.464;-2.588;2022-07-06T03:02:06;2.40;;;1.73;;
66987;SDS011;53908;51.464;-2.588;2022-07-06T03:04:32;2.08;;;1.52;;
66987;SDS011;53908;51.464;-2.588;2022-07-06T03:06:58;1.98;;;1.60;;
66987;SDS011;53908;51.464;-2.588;2022-07-06T03:09:24;2.75;;;1.70;;
66987;SDS011;53908;51.464;-2.588;2022-07-06T03:11:49;4.20;;;1.45;;
66987;SDS011;53908;51.464;-2.588;2022-07-06T03:14:15;1.98;;;1.40;;
66987;SDS011;53908;51.464;-2.588;2022-07-06T03:16:40;1.67;;;1.58;;
66987;SDS011;53908;51.464;-2.588;2022-07-06T03:19:06;1.85;;;1.60;;
66987;SDS011;53908;51.464;-2.588;2022-07-06T03:21:31;1.70;;;1.60;;
66987;SDS011;53908;51.464;-2.588;2022-07-06T03:23:57;1.70;;;1.60;;
66987;SDS011;53908;51.464;-2.588;2022-07-06T03:26:22;2.63;;;1.25;;
66987;SDS011;53908;51.464;-2.588;2022-07-06T03:28:48;1.75;;;1.65;;
66987;SDS011;53908;51.464;-2.588;2022-07-06T03:31:13;2.63;;;1.58;;
66987;SDS011;53908;51.464;-2.588;2022-07-06T03:33:38;2.55;;;1.50;;
66987;SDS011;53908;51.464;-2.588;2022-07-06T03:36:04;2.75;;;1.50;;
66987;SDS011;53908;51.464;-2.588;2022-07-06T03:38:30;2.40;;;1.58;;
66987;SDS011;53908;51.464;-2.588;2022-07-06T03:40:55;1.95;;;1.58;;
66987;SDS011;53908;51.464;-2.588;2022-07-06T03:43:21;2.95;;;1.60;;
66987;SDS011;53908;51.464;-2.588;2022-07-06T03:45:46;3.72;;;1.60;;
66987;SDS011;53908;51.464;-2.588;2022-07-06T03:48:12;1.80;;;1.50;;
66987;SDS011;53908;51.464;-2.588;2022-07-06T03:50:37;2.22;;;1.60;;
66987;SDS011;53908;51.464;-2.588;2022-07-06T03:53:02;1.63;;;1.50;;
66987;SDS011;53908;51.464;-2.588;2022-07-06T03:55:28;2.00;;;1.70;;
66987;SDS011;53908;51.464;-2.588;2022-07-06T03:57:53;1.60;;;1.50;;
66987;SDS011;53908;51.464;-2.588;2022-07-06T04:00:19;2.85;;;2.03;;
66987;SDS011;53908;51.464;-2.588;2022-07-06T04:02:44;1.80;;;1.70;;
66987;SDS011;53908;51.464;-2.588;2022-07-06T04:05:10;2.50;;;1.98;;
66987;SDS011;53908;51.464;-2.588;2022-07-06T04:07:35;2.03;;;1.85;;
66987;SDS011;53908;51.464;-2.588;2022-07-06T04:10:01;4.38;;;2.10;;
66987;SDS011;53908;51.464;-2.588;2022-07-06T04:12:26;2.50;;;1.80;;
66987;SDS011;53908;51.464;-2.588;2022-07-06T04:14:51;2.10;;;1.70;;
66987;SDS011;53908;51.464;-2.588;2022-07-06T04:17:17;5.60;;;1.90;;
66987;SDS011;53908;51.464;-2.588;2022-07-06T04:20:01;2.38;;;1.85;;
66987;SDS011;53908;51.464;-2.588;2022-07-06T04:22:26;2.75;;;1.88;;
66987;SDS011;53908;51.464;-2.588;2022-07-06T04:24:52;2.00;;;1.80;;
66987;SDS011;53908;51.464;-2.588;2022-07-06T04:27:17;2.13;;;1.90;;
66987;SDS011;53908;51.464;-2.588;2022-07-06T04:29:42;2.55;;;1.83;;
66987;SDS011;53908;51.464;-2.588;2022-07-06T04:32:08;3.15;;;2.03;;
66987;SDS011;53908;51.464;-2.588;2022-07-06T04:34:34;3.25;;;2.30;;
66987;SDS011;53908;51.464;-2.588;2022-07-06T04:37:00;2.03;;;1.90;;
66987;SDS011;53908;51.464;-2.588;2022-07-06T04:39:25;2.28;;;2.08;;
66987;SDS011;53908;51.464;-2.588;2022-07-06T04:41:51;2.00;;;1.80;;
66987;SDS011;53908;51.464;-2.588;2022-07-06T04:44:16;3.30;;;1.85;;
66987;SDS011;53908;51.464;-2.588;2022-07-06T04:46:42;3.95;;;2.03;;
66987;SDS011;53908;51.464;-2.588;2022-07-06T04:49:07;3.15;;;1.90;;
66987;SDS011;53908;51.464;-2.588;2022-07-06T04:51:32;3.92;;;1.90;;
66987;SDS011;53908;51.464;-2.588;2022-07-06T04:53:58;1.90;;;1.80;;
66987;SDS011;53908;51.464;-2.588;2022-07-06T04:56:23;2.10;;;1.90;;
66987;SDS011;53908;51.464;-2.588;2022-07-06T04:58:49;2.72;;;1.75;;
66987;SDS011;53908;51.464;-2.588;2022-07-06T05:01:14;4.25;;;1.67;;
66987;SDS011;53908;51.464;-2.588;2022-07-06T05:03:40;2.78;;;2.10;;
66987;SDS011;53908;51.464;-2.588;2022-07-06T05:06:06;2.30;;;1.75;;
66987;SDS011;53908;51.464;-2.588;2022-07-06T05:08:33;1.80;;;1.67;;
66987;SDS011;53908;51.464;-2.588;2022-07-06T05:10:59;3.95;;;1.88;;
66987;SDS011;53908;51.464;-2.588;2022-07-06T05:13:24;1.73;;;1.63;;
66987;SDS011;53908;51.464;-2.588;2022-07-06T05:15:50;1.92;;;1.83;;
66987;SDS011;53908;51.464;-2.588;2022-07-06T05:18:16;3.25;;;2.00;;
66987;SDS011;53908;51.464;-2.588;2022-07-06T05:20:41;4.15;;;1.80;;
66987;SDS011;53908;51.464;-2.588;2022-07-06T05:23:07;2.80;;;2.00;;
66987;SDS011;53908;51.464;-2.588;2022-07-06T05:25:33;2.58;;;1.95;;
66987;SDS011;53908;51.464;-2.588;2022-07-06T05:27:59;4.15;;;2.33;;
66987;SDS011;53908;51.464;-2.588;2022-07-06T05:30:24;3.45;;;2.25;;
66987;SDS011;53908;51.464;-2.588;2022-07-06T05:32:50;4.75;;;2.17;;
66987;SDS011;53908;51.464;-2.588;2022-07-06T05:35:16;2.83;;;2.40;;
66987;SDS011;53908;51.464;-2.588;2022-07-06T05:37:41;3.78;;;2.42;;
66987;SDS011;53908;51.464;-2.588;2022-07-06T05:40:07;5.88;;;2.40;;
66987;SDS011;53908;51.464;-2.588;2022-07-06T05:42:33;6.05;;;2.10;;
66987;SDS011;53908;51.464;-2.588;2022-07-06T05:44:58;4.97;;;2.60;;
66987;SDS011;53908;51.464;-2.588;2022-07-06T05:47:24;5.03;;;2.20;;
66987;SDS011;53908;51.464;-2.588;2022-07-06T05:50:08;4.00;;;2.45;;
66987;SDS011;53908;51.464;-2.588;2022-07-06T05:52:42;2.30;;;2.10;;
66987;SDS011;53908;51.464;-2.588;2022-07-06T05:57:37;6.90;;;2.00;;
66987;SDS011;53908;51.464;-2.588;2022-07-06T06:00:05;3.70;;;2.03;;
66987;SDS011;53908;51.464;-2.588;2022-07-06T06:02:39;3.42;;;2.13;;
66987;SDS011;53908;51.464;-2.588;2022-07-06T06:05:06;2.40;;;1.90;;
66987;SDS011;53908;51.464;-2.588;2022-07-06T06:07:39;2.53;;;2.20;;
66987;SDS011;53908;51.464;-2.588;2022-07-06T06:10:06;4.90;;;2.10;;
66987;SDS011;53908;51.464;-2.588;2022-07-06T06:12:33;2.90;;;2.22;;
66987;SDS011;53908;51.464;-2.588;2022-07-06T06:14:58;3.28;;;1.85;;
66987;SDS011;53908;51.464;-2.588;2022-07-06T06:17:23;3.83;;;2.13;;
66987;SDS011;53908;51.464;-2.588;2022-07-06T06:19:49;3.78;;;2.00;;
66987;SDS011;53908;51.464;-2.588;2022-07-06T06:22:14;3.60;;;2.28;;
66987;SDS011;53908;51.464;-2.588;2022-07-06T06:24:40;2.40;;;1.90;;
66987;SDS011;53908;51.464;-2.588;2022-07-06T06:27:05;3.38;;;2.20;;
66987;SDS011;53908;51.464;-2.588;2022-07-06T06:29:31;2.78;;;2.00;;
66987;SDS011;53908;51.464;-2.588;2022-07-06T06:31:57;2.92;;;1.85;;
66987;SDS011;53908;51.464;-2.588;2022-07-06T06:34:22;3.63;;;2.40;;
66987;SDS011;53908;51.464;-2.588;2022-07-06T06:36:48;2.60;;;2.05;;
66987;SDS011;53908;51.464;-2.588;2022-07-06T06:39:13;5.00;;;2.42;;
66987;SDS011;53908;51.464;-2.588;2022-07-06T06:41:39;4.93;;;2.42;;
66987;SDS011;53908;51.464;-2.588;2022-07-06T06:44:05;5.35;;;2.22;;
66987;SDS011;53908;51.464;-2.588;2022-07-06T06:46:30;4.78;;;2.05;;
66987;SDS011;53908;51.464;-2.588;2022-07-06T06:48:55;4.80;;;2.33;;
66987;SDS011;53908;51.464;-2.588;2022-07-06T06:51:21;3.80;;;2.15;;
66987;SDS011;53908;51.464;-2.588;2022-07-06T06:53:46;2.22;;;1.90;;
66987;SDS011;53908;51.464;-2.588;2022-07-06T06:56:12;1.98;;;1.65;;
66987;SDS011;53908;51.464;-2.588;2022-07-06T06:58:38;4.65;;;1.70;;
66987;SDS011;53908;51.464;-2.588;2022-07-06T07:01:03;3.22;;;1.70;;
66987;SDS011;53908;51.464;-2.588;2022-07-06T07:03:29;2.17;;;1.67;;
66987;SDS011;53908;51.464;-2.588;2022-07-06T07:05:55;3.88;;;1.80;;
66987;SDS011;53908;51.464;-2.588;2022-07-06T07:08:21;2.03;;;1.67;;
66987;SDS011;53908;51.464;-2.588;2022-07-06T07:10:46;2.60;;;1.75;;
66987;SDS011;53908;51.464;-2.588;2022-07-06T07:13:12;3.03;;;1.75;;
66987;SDS011;53908;51.464;-2.588;2022-07-06T07:15:37;3.33;;;1.95;;
66987;SDS011;53908;51.464;-2.588;2022-07-06T07:18:03;3.42;;;1.50;;
66987;SDS011;53908;51.464;-2.588;2022-07-06T07:20:28;4.07;;;1.60;;
66987;SDS011;53908;51.464;-2.588;2022-07-06T07:22:55;2.15;;;1.38;;
66987;SDS011;53908;51.464;-2.588;2022-07-06T07:25:21;1.20;;;1.10;;
66987;SDS011;53908;51.464;-2.588;2022-07-06T07:27:47;2.72;;;1.20;;
66987;SDS011;53908;51.464;-2.588;2022-07-06T07:30:12;1.45;;;1.30;;
66987;SDS011;53908;51.464;-2.588;2022-07-06T07:32:38;2.55;;;1.33;;
66987;SDS011;53908;51.464;-2.588;2022-07-06T07:35:05;4.18;;;1.98;;
66987;SDS011;53908;51.464;-2.588;2022-07-06T07:37:31;2.35;;;1.50;;
66987;SDS011;53908;51.464;-2.588;2022-07-06T07:39:57;1.85;;;1.45;;
66987;SDS011;53908;51.464;-2.588;2022-07-06T07:42:22;1.30;;;1.20;;
66987;SDS011;53908;51.464;-2.588;2022-07-06T07:44:48;1.98;;;1.20;;
66987;SDS011;53908;51.464;-2.588;2022-07-06T07:47:13;1.65;;;1.33;;
66987;SDS011;53908;51.464;-2.588;2022-07-06T07:49:39;3.38;;;1.30;;
66987;SDS011;53908;51.464;-2.588;2022-07-06T07:52:04;2.58;;;1.05;;
66987;SDS011;53908;51.464;-2.588;2022-07-06T07:54:30;0.93;;;0.90;;
66987;SDS011;53908;51.464;-2.588;2022-07-06T07:56:55;4.60;;;1.50;;
66987;SDS011;53908;51.464;-2.588;2022-07-06T07:59:22;1.63;;;1.20;;
66987;SDS011;53908;51.464;-2.588;2022-07-06T08:01:47;1.58;;;1.27;;
66987;SDS011;53908;51.464;-2.588;2022-07-06T08:04:13;1.20;;;1.10;;
66987;SDS011;53908;51.464;-2.588;2022-07-06T08:06:38;1.83;;;1.20;;
66987;SDS011;53908;51.464;-2.588;2022-07-06T08:09:04;3.33;;;1.27;;
66987;SDS011;53908;51.464;-2.588;2022-07-06T08:11:32;2.20;;;1.55;;
66987;SDS011;53908;51.464;-2.588;2022-07-06T08:13:58;2.97;;;1.45;;
66987;SDS011;53908;51.464;-2.588;2022-07-06T08:16:23;2.78;;;1.23;;
66987;SDS011;53908;51.464;-2.588;2022-07-06T08:18:49;1.10;;;0.98;;
66987;SDS011;53908;51.464;-2.588;2022-07-06T08:21:14;2.42;;;1.13;;
66987;SDS011;53908;51.464;-2.588;2022-07-06T08:23:40;1.38;;;1.00;;
66987;SDS011;53908;51.464;-2.588;2022-07-06T08:26:05;0.98;;;0.90;;
66987;SDS011;53908;51.464;-2.588;2022-07-06T08:28:31;1.63;;;0.95;;
66987;SDS011;53908;51.464;-2.588;2022-07-06T08:30:56;3.90;;;1.10;;
66987;SDS011;53908;51.464;-2.588;2022-07-06T08:33:21;2.03;;;0.80;;
66987;SDS011;53908;51.464;-2.588;2022-07-06T08:35:47;2.92;;;0.95;;
66987;SDS011;53908;51.464;-2.588;2022-07-06T08:38:12;3.42;;;1.00;;
66987;SDS011;53908;51.464;-2.588;2022-07-06T08:40:38;0.90;;;0.80;;
66987;SDS011;53908;51.464;-2.588;2022-07-06T08:43:05;1.15;;;0.90;;
66987;SDS011;53908;51.464;-2.588;2022-07-06T08:45:31;0.73;;;0.70;;
66987;SDS011;53908;51.464;-2.588;2022-07-06T08:48:03;1.02;;;0.70;;
66987;SDS011;53908;51.464;-2.588;2022-07-06T08:50:30;1.10;;;0.60;;
66987;SDS011;53908;51.464;-2.588;2022-07-06T08:52:56;0.60;;;0.60;;
66987;SDS011;53908;51.464;-2.588;2022-07-06T08:55:22;1.70;;;1.25;;
66987;SDS011;53908;51.464;-2.588;2022-07-06T08:57:48;3.75;;;0.85;;
66987;SDS011;53908;51.464;-2.588;2022-07-06T09:00:14;0.70;;;0.70;;
66987;SDS011;53908;51.464;-2.588;2022-07-06T09:02:40;1.25;;;0.80;;
66987;SDS011;53908;51.464;-2.588;2022-07-06T09:05:06;2.75;;;0.80;;
66987;SDS011;53908;51.464;-2.588;2022-07-06T09:07:32;2.30;;;0.80;;
66987;SDS011;53908;51.464;-2.588;2022-07-06T09:09:57;0.98;;;0.73;;
66987;SDS011;53908;51.464;-2.588;2022-07-06T09:12:26;1.15;;;0.90;;
66987;SDS011;53908;51.464;-2.588;2022-07-06T09:14:53;1.40;;;0.80;;
66987;SDS011;53908;51.464;-2.588;2022-07-06T09:17:23;1.80;;;0.80;;
66987;SDS011;53908;51.464;-2.588;2022-07-06T09:19:50;1.27;;;0.90;;
66987;SDS011;53908;51.464;-2.588;2022-07-06T09:22:28;1.52;;;1.02;;
66987;SDS011;53908;51.464;-2.588;2022-07-06T09:27:51;2.63;;;0.90;;
66987;SDS011;53908;51.464;-2.588;2022-07-06T09:30:19;2.83;;;0.73;;
66987;SDS011;53908;51.464;-2.588;2022-07-06T09:32:46;2.55;;;1.00;;
66987;SDS011;53908;51.464;-2.588;2022-07-06T09:35:18;2.92;;;0.70;;
66987;SDS011;53908;51.464;-2.588;2022-07-06T09:37:46;0.60;;;0.60;;
66987;SDS011;53908;51.464;-2.588;2022-07-06T09:40:19;1.17;;;0.70;;
66987;SDS011;53908;51.464;-2.588;2022-07-06T09:42:44;2.25;;;0.82;;
66987;SDS011;53908;51.464;-2.588;2022-07-06T09:45:10;1.88;;;0.90;;
66987;SDS011;53908;51.464;-2.588;2022-07-06T09:47:35;1.35;;;0.80;;
66987;SDS011;53908;51.464;-2.588;2022-07-06T09:50:06;1.55;;;0.70;;
66987;SDS011;53908;51.464;-2.588;2022-07-06T09:52:35;3.50;;;0.88;;
66987;SDS011;53908;51.464;-2.588;2022-07-06T09:55:05;2.38;;;0.80;;
66987;SDS011;53908;51.464;-2.588;2022-07-06T09:57:31;1.90;;;0.80;;
66987;SDS011;53908;51.464;-2.588;2022-07-06T10:00:00;1.08;;;0.75;;
66987;SDS011;53908;51.464;-2.588;2022-07-06T10:02:25;2.70;;;0.90;;
66987;SDS011;53908;51.464;-2.588;2022-07-06T10:04:54;2.97;;;0.90;;
66987;SDS011;53908;51.464;-2.588;2022-07-06T10:07:21;3.80;;;0.70;;
66987;SDS011;53908;51.464;-2.588;2022-07-06T10:09:48;1.88;;;0.70;;
66987;SDS011;53908;51.464;-2.588;2022-07-06T10:12:14;2.97;;;0.70;;
66987;SDS011;53908;51.464;-2.588;2022-07-06T10:14:41;5.00;;;0.93;;
66987;SDS011;53908;51.464;-2.588;2022-07-06T10:17:07;1.92;;;0.77;;
66987;SDS011;53908;51.464;-2.588;2022-07-06T10:19:32;4.43;;;0.82;;
66987;SDS011;53908;51.464;-2.588;2022-07-06T10:21:59;2.47;;;1.00;;
66987;SDS011;53908;51.464;-2.588;2022-07-06T10:24:25;3.72;;;0.80;;
66987;SDS011;53908;51.464;-2.588;2022-07-06T10:26:52;3.95;;;0.80;;
66987;SDS011;53908;51.464;-2.588;2022-07-06T10:29:18;2.15;;;0.80;;
66987;SDS011;53908;51.464;-2.588;2022-07-06T10:31:44;0.90;;;0.80;;
66987;SDS011;53908;51.464;-2.588;2022-07-06T10:34:12;3.90;;;0.80;;
66987;SDS011;53908;51.464;-2.588;2022-07-06T10:36:39;2.70;;;0.82;;
66987;SDS011;53908;51.464;-2.588;2022-07-06T10:39:05;1.35;;;0.60;;
66987;SDS011;53908;51.464;-2.588;2022-07-06T10:41:50;1.48;;;0.80;;
66987;SDS011;53908;51.464;-2.588;2022-07-06T10:44:16;1.25;;;1.00;;
66987;SDS011;53908;51.464;-2.588;2022-07-06T10:46:51;2.97;;;1.00;;
66987;SDS011;53908;51.464;-2.588;2022-07-06T10:49:18;0.93;;;0.90;;
66987;SDS011;53908;51.464;-2.588;2022-07-06T10:51:43;1.42;;;1.05;;
66987;SDS011;53908;51.464;-2.588;2022-07-06T10:54:09;5.93;;;0.82;;
66987;SDS011;53908;51.464;-2.588;2022-07-06T11:02:33;0.60;;;0.60;;
66987;SDS011;53908;51.464;-2.588;2022-07-06T11:04:37;1.45;;;0.80;;
66987;SDS011;53908;51.464;-2.588;2022-07-06T11:07:08;3.10;;;2.10;;
66987;SDS011;53908;51.464;-2.588;2022-07-06T11:09:35;1.23;;;0.80;;
66987;SDS011;53908;51.464;-2.588;2022-07-06T11:12:10;1.10;;;1.00;;
66987;SDS011;53908;51.464;-2.588;2022-07-06T11:14:37;1.00;;;0.68;;
66987;SDS011;53908;51.464;-2.588;2022-07-06T11:17:04;2.25;;;0.70;;
66987;SDS011;53908;51.464;-2.588;2022-07-06T11:19:30;0.88;;;0.80;;
66987;SDS011;53908;51.464;-2.588;2022-07-06T11:21:56;1.83;;;0.80;;
66987;SDS011;53908;51.464;-2.588;2022-07-06T11:24:27;0.85;;;0.68;;
66987;SDS011;53908;51.464;-2.588;2022-07-06T11:26:54;1.45;;;0.70;;
66987;SDS011;53908;51.464;-2.588;2022-07-06T11:29:22;4.60;;;0.80;;
66987;SDS011;53908;51.464;-2.588;2022-07-06T11:31:49;2.38;;;0.65;;
66987;SDS011;53908;51.464;-2.588;2022-07-06T11:34:18;0.68;;;0.60;;
66987;SDS011;53908;51.464;-2.588;2022-07-06T11:36:45;2.15;;;0.80;;
66987;SDS011;53908;51.464;-2.588;2022-07-06T11:39:11;2.03;;;0.70;;
66987;SDS011;53908;51.464;-2.588;2022-07-06T11:41:37;1.13;;;0.70;;
66987;SDS011;53908;51.464;-2.588;2022-07-06T11:44:02;1.20;;;0.70;;
66987;SDS011;53908;51.464;-2.588;2022-07-06T11:46:32;0.63;;;0.63;;
66987;SDS011;53908;51.464;-2.588;2022-07-06T11:49:00;1.80;;;0.88;;
66987;SDS011;53908;51.464;-2.588;2022-07-06T11:51:30;2.55;;;0.85;;
66987;SDS011;53908;51.464;-2.588;2022-07-06T11:53:58;6.45;;;1.00;;
66987;SDS011;53908;51.464;-2.588;2022-07-06T11:56:25;3.60;;;0.80;;
66987;SDS011;53908;51.464;-2.588;2022-07-06T11:58:54;3.78;;;0.77;;
66987;SDS011;53908;51.464;-2.588;2022-07-06T12:01:22;1.67;;;0.68;;
66987;SDS011;53908;51.464;-2.588;2022-07-06T12:03:49;3.00;;;0.73;;
66987;SDS011;53908;51.464;-2.588;2022-07-06T12:06:16;3.25;;;0.90;;
66987;SDS011;53908;51.464;-2.588;2022-07-06T12:08:44;0.65;;;0.65;;
66987;SDS011;53908;51.464;-2.588;2022-07-06T12:11:16;1.70;;;0.80;;
66987;SDS011;53908;51.464;-2.588;2022-07-06T12:13:43;2.33;;;0.95;;
66987;SDS011;53908;51.464;-2.588;2022-07-06T12:16:12;2.90;;;0.90;;
66987;SDS011;53908;51.464;-2.588;2022-07-06T12:18:38;3.53;;;1.23;;
66987;SDS011;53908;51.464;-2.588;2022-07-06T12:21:06;1.33;;;0.88;;
66987;SDS011;53908;51.464;-2.588;2022-07-06T12:24:06;1.50;;;0.88;;
66987;SDS011;53908;51.464;-2.588;2022-07-06T12:26:26;2.10;;;0.80;;
66987;SDS011;53908;51.464;-2.588;2022-07-06T12:29:02;1.60;;;0.98;;
66987;SDS011;53908;51.464;-2.588;2022-07-06T12:31:35;2.40;;;0.80;;
66987;SDS011;53908;51.464;-2.588;2022-07-06T12:34:02;3.75;;;0.93;;
66987;SDS011;53908;51.464;-2.588;2022-07-06T12:36:28;3.25;;;1.08;;
66987;SDS011;53908;51.464;-2.588;2022-07-06T12:38:53;5.40;;;1.00;;
66987;SDS011;53908;51.464;-2.588;2022-07-06T12:43:59;1.75;;;0.80;;
66987;SDS011;53908;51.464;-2.588;2022-07-06T12:46:33;2.15;;;0.75;;
66987;SDS011;53908;51.464;-2.588;2022-07-06T12:49:01;1.75;;;0.80;;
66987;SDS011;53908;51.464;-2.588;2022-07-06T12:51:28;1.98;;;0.73;;
66987;SDS011;53908;51.464;-2.588;2022-07-06T12:54:11;2.78;;;0.90;;
66987;SDS011;53908;51.464;-2.588;2022-07-06T12:56:55;3.47;;;0.82;;
66987;SDS011;53908;51.464;-2.588;2022-07-06T12:59:23;4.60;;;0.98;;
66987;SDS011;53908;51.464;-2.588;2022-07-06T13:01:49;2.00;;;0.70;;
66987;SDS011;53908;51.464;-2.588;2022-07-06T13:04:16;2.85;;;0.98;;
66987;SDS011;53908;51.464;-2.588;2022-07-06T13:06:41;1.95;;;0.90;;
66987;SDS011;53908;51.464;-2.588;2022-07-06T13:09:07;3.80;;;1.00;;
66987;SDS011;53908;51.464;-2.588;2022-07-06T13:11:32;3.88;;;0.90;;
66987;SDS011;53908;51.464;-2.588;2022-07-06T13:13:58;3.65;;;1.40;;
66987;SDS011;53908;51.464;-2.588;2022-07-06T13:16:24;5.65;;;1.20;;
66987;SDS011;53908;51.464;-2.588;2022-07-06T13:18:55;2.53;;;1.20;;
66987;SDS011;53908;51.464;-2.588;2022-07-06T13:21:21;3.33;;;1.20;;
66987;SDS011;53908;51.464;-2.588;2022-07-06T13:23:46;4.03;;;1.20;;
66987;SDS011;53908;51.464;-2.588;2022-07-06T13:26:11;5.10;;;1.60;;
66987;SDS011;53908;51.464;-2.588;2022-07-06T13:28:37;3.08;;;1.23;;
66987;SDS011;53908;51.464;-2.588;2022-07-06T13:31:02;3.15;;;1.30;;
66987;SDS011;53908;51.464;-2.588;2022-07-06T13:33:28;1.90;;;1.00;;
66987;SDS011;53908;51.464;-2.588;2022-07-06T13:35:53;3.53;;;1.00;;
66987;SDS011;53908;51.464;-2.588;2022-07-06T13:38:19;3.58;;;1.10;;
66987;SDS011;53908;51.464;-2.588;2022-07-06T13:40:44;5.32;;;1.15;;
66987;SDS011;53908;51.464;-2.588;2022-07-06T13:43:09;5.45;;;1.15;;
66987;SDS011;53908;51.464;-2.588;2022-07-06T13:45:35;2.45;;;1.00;;
66987;SDS011;53908;51.464;-2.588;2022-07-06T13:48:00;2.88;;;1.00;;
66987;SDS011;53908;51.464;-2.588;2022-07-06T13:50:26;3.47;;;1.08;;
66987;SDS011;53908;51.464;-2.588;2022-07-06T13:52:52;3.53;;;1.08;;
66987;SDS011;53908;51.464;-2.588;2022-07-06T13:55:18;5.32;;;1.10;;
66987;SDS011;53908;51.464;-2.588;2022-07-06T13:57:43;3.85;;;1.27;;
66987;SDS011;53908;51.464;-2.588;2022-07-06T14:00:10;4.90;;;1.23;;
66987;SDS011;53908;51.464;-2.588;2022-07-06T14:02:36;5.18;;;1.20;;
66987;SDS011;53908;51.464;-2.588;2022-07-06T14:05:01;4.03;;;1.08;;
66987;SDS011;53908;51.464;-2.588;2022-07-06T14:07:27;3.22;;;1.17;;
66987;SDS011;53908;51.464;-2.588;2022-07-06T14:09:52;3.08;;;1.05;;
66987;SDS011;53908;51.464;-2.588;2022-07-06T14:12:18;4.13;;;1.17;;
66987;SDS011;53908;51.464;-2.588;2022-07-06T14:14:44;2.75;;;1.00;;
66987;SDS011;53908;51.464;-2.588;2022-07-06T14:17:09;4.78;;;1.30;;
66987;SDS011;53908;51.464;-2.588;2022-07-06T14:19:35;3.55;;;1.13;;
66987;SDS011;53908;51.464;-2.588;2022-07-06T14:22:00;2.80;;;1.10;;
66987;SDS011;53908;51.464;-2.588;2022-07-06T14:24:26;4.47;;;1.50;;
66987;SDS011;53908;51.464;-2.588;2022-07-06T14:26:53;8.60;;;1.50;;
66987;SDS011;53908;51.464;-2.588;2022-07-06T14:29:19;3.22;;;1.23;;
66987;SDS011;53908;51.464;-2.588;2022-07-06T14:31:45;5.18;;;1.35;;
66987;SDS011;53908;51.464;-2.588;2022-07-06T14:34:12;3.72;;;1.33;;
66987;SDS011;53908;51.464;-2.588;2022-07-06T14:36:38;3.22;;;1.40;;
66987;SDS011;53908;51.464;-2.588;2022-07-06T14:39:04;4.65;;;1.40;;
66987;SDS011;53908;51.464;-2.588;2022-07-06T14:41:30;2.22;;;1.20;;
66987;SDS011;53908;51.464;-2.588;2022-07-06T14:43:55;3.17;;;1.40;;